Time;durP1;ratioP1;P1;durP2;ratioP2;P2;SDS_P1;SDS_P2;PMS_P1;PMS_P2;Temp;Humidity;BMP_temperature;BMP_pressure;BME280_temperature;BME280_humidity;BME280_pressure;Samples;Min_cycle;Max_cycle;Signal;HPM_P1;HPM_P2
2023/08/20 00:00:11;;;;;;;7.80;2.85;;;15.70;99.90;;;;;;5050364;28;20501;-50
2023/08/20 00:02:38;;;;;;;6.47;2.10;;;13.90;99.90;;;;;;5049926;28;20029;-44
2023/08/20 00:05:04;;;;;;;10.45;2.10;;;16.60;99.90;;;;;;5050477;28;20334;-44
2023/08/20 00:07:31;;;;;;;4.88;2.05;;;13.50;99.90;;;;;;5050274;28;20021;-50
2023/08/20 00:09:57;;;;;;;7.28;2.42;;;16.10;99.90;;;;;;5051461;28;20033;-49
2023/08/20 00:12:23;;;;;;;4.00;1.75;;;16.40;99.90;;;;;;5054445;28;20036;-47
2023/08/20 00:14:58;;;;;;;7.97;2.42;;;17.10;99.90;;;;;;5054256;28;20021;-48
2023/08/20 00:17:26;;;;;;;5.38;2.00;;;15.70;99.90;;;;;;5054108;28;20029;-48
2023/08/20 00:19:56;;;;;;;5.35;2.03;;;13.30;99.90;;;;;;5054409;28;20032;-47
2023/08/20 00:22:23;;;;;;;10.20;2.28;;;16.60;99.90;;;;;;5054315;28;20025;-48
2023/08/20 00:24:51;;;;;;;8.13;1.65;;;15.80;99.90;;;;;;5053998;28;20649;-51
2023/08/20 00:27:17;;;;;;;6.32;1.95;;;17.90;99.90;;;;;;5054161;28;20033;-54
2023/08/20 00:29:43;;;;;;;5.13;1.30;;;17.80;99.90;;;;;;5053937;28;20078;-47
2023/08/20 00:32:09;;;;;;;6.95;1.52;;;15.60;99.90;;;;;;5052608;28;20024;-46
2023/08/20 00:34:34;;;;;;;12.68;2.20;;;15.80;99.90;;;;;;5054242;28;20032;-47
2023/08/20 00:37:02;;;;;;;13.30;1.80;;;16.60;99.90;;;;;;5054025;28;20067;-49
2023/08/20 00:39:28;;;;;;;5.70;1.95;;;15.00;99.90;;;;;;5054107;28;20111;-55
2023/08/20 00:41:53;;;;;;;4.53;2.10;;;15.80;99.90;;;;;;5053752;28;20110;-45
2023/08/20 00:44:19;;;;;;;7.28;1.90;;;16.30;99.90;;;;;;5053788;28;20202;-47
2023/08/20 00:46:45;;;;;;;8.10;1.67;;;15.60;99.90;;;;;;5052194;28;20044;-47
2023/08/20 00:49:11;;;;;;;6.95;1.55;;;15.80;99.90;;;;;;5053622;28;20043;-54
2023/08/20 00:51:37;;;;;;;7.47;1.73;;;12.60;99.90;;;;;;5053847;28;20079;-52
2023/08/20 00:54:03;;;;;;;3.08;1.30;;;16.50;99.90;;;;;;5053604;28;20466;-52
2023/08/20 00:56:29;;;;;;;5.47;1.85;;;14.10;99.90;;;;;;5053591;28;20098;-50
2023/08/20 00:58:55;;;;;;;6.82;1.75;;;;;;;;;;5053441;28;20025;-56
2023/08/20 01:01:24;;;;;;;8.55;2.17;;;13.50;99.90;;;;;;5053436;28;20039;-52
2023/08/20 01:03:50;;;;;;;6.88;1.80;;;15.40;99.90;;;;;;5053454;28;20025;-44
2023/08/20 01:06:31;;;;;;;6.85;1.70;;;17.40;99.90;;;;;;5035573;28;20044;-51
2023/08/20 01:09:22;;;;;;;6.88;1.70;;;15.30;99.90;;;;;;5033373;28;20018;-44
2023/08/20 01:11:54;;;;;;;7.75;2.20;;;15.80;99.90;;;;;;5042713;28;20551;-48
2023/08/20 01:14:20;;;;;;;8.20;1.80;;;13.70;99.90;;;;;;5042651;28;20037;-46
2023/08/20 01:16:46;;;;;;;9.85;2.20;;;15.20;99.90;;;;;;5034715;28;20477;-51
2023/08/20 01:19:17;;;;;;;5.10;1.83;;;14.90;99.90;;;;;;5041072;28;20108;-46
2023/08/20 01:21:51;;;;;;;8.13;1.90;;;15.30;99.90;;;;;;5042341;28;20041;-48
2023/08/20 01:24:47;;;;;;;9.55;2.50;;;15.80;99.90;;;;;;5040550;28;20025;-54
2023/08/20 01:28:04;;;;;;;5.60;1.55;;;14.10;99.90;;;;;;5044753;28;20124;-45
2023/08/20 01:30:31;;;;;;;6.70;1.83;;;15.20;99.90;;;;;;5034024;28;20540;-46
2023/08/20 01:32:58;;;;;;;12.38;1.60;;;16.60;99.90;;;;;;5039424;28;20021;-47
2023/08/20 01:35:26;;;;;;;5.47;1.58;;;15.10;99.90;;;;;;5042222;28;20029;-53
2023/08/20 01:37:51;;;;;;;7.07;2.05;;;15.10;99.90;;;;;;5040130;28;20087;-44
2023/08/20 01:40:17;;;;;;;9.45;2.25;;;15.40;99.90;;;;;;5034984;28;20029;-50
2023/08/20 01:42:43;;;;;;;6.30;1.95;;;;;;;;;;5041947;28;20489;-51
2023/08/20 01:45:09;;;;;;;10.50;2.15;;;;;;;;;;5041904;28;20116;-49
2023/08/20 01:47:35;;;;;;;5.45;1.88;;;12.50;99.90;;;;;;5035535;28;20422;-52
2023/08/20 01:50:01;;;;;;;7.57;2.42;;;16.00;99.90;;;;;;5038577;28;20033;-45
2023/08/20 01:52:29;;;;;;;13.10;2.30;;;14.60;99.90;;;;;;5041593;28;20565;-48
2023/08/20 01:54:54;;;;;;;10.00;2.30;;;15.00;99.90;;;;;;5039923;28;20111;-45
2023/08/20 01:57:20;;;;;;;4.78;1.88;;;16.20;99.90;;;;;;5034000;28;20447;-44
2023/08/20 01:59:47;;;;;;;11.90;2.40;;;15.70;99.90;;;;;;5051025;28;20545;-48
2023/08/20 02:02:13;;;;;;;5.20;1.65;;;15.30;99.90;;;;;;5052456;28;20033;-45
2023/08/20 02:04:39;;;;;;;10.38;2.22;;;;;;;;;;5052210;28;20470;-46
2023/08/20 02:07:04;;;;;;;8.27;1.80;;;17.10;99.90;;;;;;5052296;28;20051;-47
2023/08/20 02:09:30;;;;;;;5.40;2.15;;;14.80;99.90;;;;;;5052034;28;20025;-53
2023/08/20 02:11:56;;;;;;;7.15;2.03;;;15.80;99.90;;;;;;5052000;28;20059;-45
2023/08/20 02:14:22;;;;;;;6.45;2.20;;;;;;;;;;5051930;28;20017;-51
2023/08/20 02:16:47;;;;;;;6.50;1.70;;;12.40;99.90;;;;;;5052132;28;20053;-45
2023/08/20 02:19:14;;;;;;;8.50;2.72;;;15.00;99.90;;;;;;5050626;28;20639;-52
2023/08/20 02:21:40;;;;;;;5.28;1.73;;;;;;;;;;5051940;28;20031;-47
2023/08/20 02:24:06;;;;;;;8.60;2.08;;;14.90;99.90;;;;;;5051975;28;20116;-50
2023/08/20 02:26:32;;;;;;;6.28;1.85;;;15.70;99.90;;;;;;5051673;28;20040;-47
2023/08/20 02:28:57;;;;;;;3.25;1.50;;;15.80;99.90;;;;;;5051847;28;20032;-48
2023/08/20 02:31:23;;;;;;;5.45;1.70;;;13.00;99.90;;;;;;5051505;28;20033;-47
2023/08/20 02:33:49;;;;;;;4.90;1.67;;;;;;;;;;5051197;28;20082;-48
2023/08/20 02:36:14;;;;;;;5.88;1.58;;;12.40;99.90;;;;;;5050273;28;20028;-47
2023/08/20 02:38:40;;;;;;;5.47;1.58;;;15.60;99.90;;;;;;5051436;28;20098;-52
2023/08/20 02:41:06;;;;;;;5.63;1.73;;;15.40;99.90;;;;;;5051372;28;20048;-52
2023/08/20 02:43:32;;;;;;;6.43;1.88;;;12.40;99.90;;;;;;5051293;28;20032;-56
2023/08/20 02:45:57;;;;;;;7.03;2.17;;;14.70;99.90;;;;;;5051399;28;20033;-47
2023/08/20 02:48:27;;;;;;;5.13;1.60;;;15.10;99.90;;;;;;5050920;28;20049;-47
2023/08/20 02:50:56;;;;;;;5.43;1.80;;;14.60;99.90;;;;;;5051334;28;20112;-46
2023/08/20 02:53:22;;;;;;;4.15;1.35;;;16.10;99.90;;;;;;5051181;28;20063;-49
2023/08/20 02:55:48;;;;;;;6.93;1.67;;;;;;;;;;5050854;28;20120;-56
2023/08/20 02:58:14;;;;;;;5.40;1.50;;;13.90;99.90;;;;;;5051150;28;20021;-47
2023/08/20 03:00:40;;;;;;;4.03;1.70;;;14.50;99.90;;;;;;5051069;28;20398;-55
2023/08/20 03:03:08;;;;;;;5.78;1.83;;;13.30;99.90;;;;;;5050888;28;20098;-47
2023/08/20 03:05:34;;;;;;;2.95;1.40;;;14.40;99.90;;;;;;5051020;28;20021;-58
2023/08/20 03:08:00;;;;;;;5.10;1.42;;;14.80;99.90;;;;;;5050868;28;20055;-51
2023/08/20 03:10:28;;;;;;;4.50;2.20;;;16.10;99.90;;;;;;5050948;28;20122;-45
2023/08/20 03:12:54;;;;;;;3.67;1.60;;;14.90;99.90;;;;;;5050903;28;20477;-45
2023/08/20 03:15:20;;;;;;;5.60;1.35;;;;;;;;;;5051044;28;20029;-52
2023/08/20 03:17:45;;;;;;;6.70;1.38;;;15.40;99.90;;;;;;5050562;28;20102;-51
2023/08/20 03:20:11;;;;;;;5.30;1.83;;;14.80;99.90;;;;;;5050747;28;20017;-51
2023/08/20 03:22:38;;;;;;;2.17;1.50;;;15.30;99.90;;;;;;5050664;28;20481;-44
2023/08/20 03:25:05;;;;;;;3.30;1.50;;;15.50;99.90;;;;;;5050762;28;20017;-54
2023/08/20 03:27:30;;;;;;;10.20;2.08;;;15.60;99.90;;;;;;5050750;28;20025;-49
2023/08/20 03:29:56;;;;;;;3.85;1.77;;;12.80;99.90;;;;;;5050681;28;20099;-54
2023/08/20 03:32:22;;;;;;;5.53;1.60;;;15.20;99.90;;;;;;5050888;28;20021;-53
2023/08/20 03:34:48;;;;;;;4.50;1.50;;;14.40;99.90;;;;;;5050613;28;20056;-49
2023/08/20 03:37:14;;;;;;;4.15;1.52;;;14.40;99.90;;;;;;5050766;28;20076;-55
2023/08/20 03:39:40;;;;;;;6.35;1.98;;;;;;;;;;5050840;28;20029;-50
2023/08/20 03:42:05;;;;;;;5.57;1.88;;;12.00;99.90;;;;;;5050414;28;20546;-47
2023/08/20 03:44:31;;;;;;;6.97;1.90;;;13.00;99.90;;;;;;5049575;28;20121;-46
2023/08/20 03:46:57;;;;;;;8.98;1.52;;;14.30;99.90;;;;;;5050230;28;20107;-45
2023/08/20 03:49:23;;;;;;;4.07;1.42;;;14.00;99.90;;;;;;5050468;28;20505;-45
2023/08/20 03:51:49;;;;;;;14.43;2.05;;;;;;;;;;5050286;28;20033;-49
2023/08/20 03:54:14;;;;;;;7.10;2.10;;;14.30;99.90;;;;;;5050345;28;20028;-47
2023/08/20 03:56:40;;;;;;;5.18;1.70;;;14.50;99.90;;;;;;5049029;28;20438;-46
2023/08/20 03:59:06;;;;;;;4.75;1.77;;;15.90;99.90;;;;;;5050153;28;20025;-51
2023/08/20 04:01:32;;;;;;;5.85;1.25;;;15.60;99.90;;;;;;5039285;28;20086;-51
2023/08/20 04:03:57;;;;;;;6.88;1.70;;;15.40;99.90;;;;;;5047525;28;20025;-56
2023/08/20 04:06:23;;;;;;;3.13;1.27;;;14.30;99.90;;;;;;5049921;28;20111;-46
2023/08/20 04:08:49;;;;;;;2.50;1.10;;;;;;;;;;5050289;28;20381;-45
2023/08/20 04:11:15;;;;;;;4.22;1.33;;;14.20;99.90;;;;;;5050060;28;20043;-45
2023/08/20 04:13:43;;;;;;;3.85;1.50;;;12.60;99.90;;;;;;5050055;28;20025;-47
2023/08/20 04:16:09;;;;;;;3.55;1.33;;;11.80;99.90;;;;;;5050315;28;20033;-51
2023/08/20 04:18:34;;;;;;;4.25;1.55;;;13.20;99.90;;;;;;5049748;28;20021;-50
2023/08/20 04:21:00;;;;;;;1.98;1.02;;;15.70;99.90;;;;;;5050042;28;20036;-49
2023/08/20 04:23:26;;;;;;;3.80;1.50;;;16.10;99.90;;;;;;5050199;28;20033;-44
2023/08/20 04:25:52;;;;;;;3.35;1.30;;;16.30;99.90;;;;;;5050353;28;20409;-44
2023/08/20 04:28:17;;;;;;;3.88;1.55;;;12.60;99.90;;;;;;5050011;28;20025;-44
2023/08/20 04:30:43;;;;;;;3.75;1.42;;;12.60;99.90;;;;;;5049988;28;20025;-51
2023/08/20 04:33:09;;;;;;;3.03;1.33;;;15.50;99.90;;;;;;5050061;28;20021;-49
2023/08/20 04:35:35;;;;;;;5.32;1.35;;;14.70;99.90;;;;;;5049968;28;20017;-47
2023/08/20 04:38:02;;;;;;;5.25;1.60;;;16.00;99.90;;;;;;5049855;28;20032;-45
2023/08/20 04:40:28;;;;;;;3.80;1.27;;;14.40;99.90;;;;;;5049886;28;20033;-47
2023/08/20 04:42:54;;;;;;;3.67;1.33;;;;;;;;;;5049661;28;20159;-48
2023/08/20 04:45:19;;;;;;;6.72;1.50;;;13.70;99.90;;;;;;5049722;28;20470;-49
2023/08/20 04:47:46;;;;;;;3.03;1.50;;;15.00;99.90;;;;;;5049562;28;20049;-46
2023/08/20 04:50:13;;;;;;;5.75;1.30;;;14.80;99.90;;;;;;5046142;28;20593;-52
2023/08/20 04:52:39;;;;;;;5.50;1.98;;;15.30;99.90;;;;;;5035304;28;20053;-56
2023/08/20 04:55:06;;;;;;;2.88;1.52;;;12.10;99.90;;;;;;5030937;28;20404;-44
2023/08/20 04:57:32;;;;;;;4.30;1.33;;;11.90;99.90;;;;;;5037282;28;20032;-49
2023/08/20 04:59:57;;;;;;;3.30;1.58;;;13.40;99.90;;;;;;5038929;28;20482;-53
2023/08/20 05:02:23;;;;;;;5.05;1.60;;;14.70;99.90;;;;;;5038581;28;20025;-45
2023/08/20 05:04:49;;;;;;;3.78;1.60;;;13.10;99.90;;;;;;5038493;28;20105;-52
2023/08/20 05:07:15;;;;;;;1.77;1.23;;;14.10;99.90;;;;;;5053329;28;20109;-45
2023/08/20 05:09:40;;;;;;;2.30;1.48;;;14.20;99.90;;;;;;5053238;28;20025;-51
2023/08/20 05:12:07;;;;;;;5.95;1.85;;;12.60;99.90;;;;;;5053243;28;20035;-48
2023/08/20 05:14:33;;;;;;;5.32;1.30;;;14.30;99.90;;;;;;5053077;28;20473;-47
2023/08/20 05:16:58;;;;;;;4.05;1.50;;;12.20;99.90;;;;;;5053274;28;20090;-45
2023/08/20 05:19:24;;;;;;;6.15;1.50;;;14.30;99.90;;;;;;5053172;28;20017;-49
2023/08/20 05:21:50;;;;;;;4.55;1.15;;;;;;;;;;5053271;28;20120;-51
2023/08/20 05:24:15;;;;;;;6.00;1.50;;;14.50;99.90;;;;;;5053108;28;20021;-53
2023/08/20 05:26:41;;;;;;;3.78;1.70;;;14.50;99.90;;;;;;5052940;28;20159;-52
2023/08/20 05:29:06;;;;;;;1.25;1.00;;;14.60;99.90;;;;;;5053054;28;20421;-48
2023/08/20 05:31:32;;;;;;;4.97;1.73;;;15.30;99.90;;;;;;5052795;28;20063;-48
2023/08/20 05:33:58;;;;;;;3.65;1.42;;;14.70;99.90;;;;;;5052823;28;20021;-49
2023/08/20 05:36:23;;;;;;;4.82;1.30;;;12.00;99.90;;;;;;5053175;28;20032;-51
2023/08/20 05:38:49;;;;;;;6.22;1.27;;;17.10;99.90;;;;;;5052609;28;20416;-44
2023/08/20 05:41:15;;;;;;;5.22;1.52;;;15.50;99.90;;;;;;5052732;28;20021;-46
2023/08/20 05:43:41;;;;;;;2.85;1.50;;;15.60;99.90;;;;;;5052430;28;20516;-53
2023/08/20 05:46:06;;;;;;;9.85;1.98;;;16.70;99.90;;;;;;5052311;28;20029;-44
2023/08/20 05:48:32;;;;;;;6.50;1.88;;;;;;;;;;5052199;28;20473;-47
2023/08/20 05:50:58;;;;;;;4.78;1.70;;;15.70;99.90;;;;;;5052546;28;20448;-44
2023/08/20 05:53:23;;;;;;;4.35;1.17;;;13.20;99.90;;;;;;5052701;28;20105;-46
2023/08/20 05:55:49;;;;;;;2.08;1.00;;;15.30;99.90;;;;;;5047358;28;20026;-53
2023/08/20 05:58:15;;;;;;;5.00;1.52;;;16.20;99.90;;;;;;5047360;28;20428;-44
2023/08/20 06:00:41;;;;;;;3.47;1.05;;;15.90;99.90;;;;;;5048273;28;20029;-44
2023/08/20 06:03:07;;;;;;;6.97;1.75;;;16.20;99.90;;;;;;5051821;28;20028;-44
2023/08/20 06:05:33;;;;;;;6.13;1.65;;;16.20;99.90;;;;;;5051494;28;20029;-44
2023/08/20 06:07:59;;;;;;;4.65;1.50;;;16.00;99.90;;;;;;5050437;28;20021;-47
2023/08/20 06:10:25;;;;;;;6.18;1.58;;;16.30;99.90;;;;;;5048488;28;20086;-54
2023/08/20 06:12:50;;;;;;;7.93;1.77;;;15.40;99.90;;;;;;5038533;28;20063;-46
2023/08/20 06:15:16;;;;;;;5.15;1.67;;;16.50;99.90;;;;;;5032228;28;20021;-50
2023/08/20 06:17:41;;;;;;;8.13;1.77;;;16.20;99.90;;;;;;5032124;28;20029;-46
2023/08/20 06:20:08;;;;;;;7.85;1.67;;;12.90;99.90;;;;;;5032066;28;20026;-51
2023/08/20 06:22:34;;;;;;;5.40;1.35;;;15.80;99.90;;;;;;5032545;28;20042;-49
2023/08/20 06:25:00;;;;;;;6.65;1.35;;;17.10;99.90;;;;;;5031900;28;20478;-51
2023/08/20 06:27:25;;;;;;;4.90;1.85;;;13.60;99.90;;;;;;5031933;28;20188;-44
2023/08/20 06:29:51;;;;;;;4.72;1.58;;;17.60;99.90;;;;;;5031883;28;20025;-51
2023/08/20 06:32:17;;;;;;;4.43;1.73;;;19.20;99.90;;;;;;5031947;28;20449;-49
2023/08/20 06:34:42;;;;;;;11.23;1.65;;;15.80;99.90;;;;;;5040914;28;20762;-47
2023/08/20 06:37:08;;;;;;;6.93;1.40;;;18.40;99.90;;;;;;5038550;28;20040;-47
2023/08/20 06:39:33;;;;;;;4.38;1.40;;;18.70;99.90;;;;;;5035147;28;20094;-54
2023/08/20 06:41:59;;;;;;;3.70;1.30;;;;;;;;;;5034299;28;20029;-53
2023/08/20 06:44:25;;;;;;;6.95;1.35;;;20.00;99.90;;;;;;5039867;28;20075;-50
2023/08/20 06:46:51;;;;;;;5.68;1.30;;;19.80;99.90;;;;;;5036002;28;20049;-48
2023/08/20 06:49:16;;;;;;;2.50;0.80;;;19.70;99.90;;;;;;5040607;28;20056;-44
2023/08/20 06:51:42;;;;;;;3.33;1.17;;;20.10;99.90;;;;;;5038169;28;20026;-48
2023/08/20 06:54:07;;;;;;;5.00;1.30;;;19.40;99.90;;;;;;5040502;28;20017;-47
2023/08/20 06:56:33;;;;;;;4.82;1.38;;;20.00;99.90;;;;;;5037754;28;20112;-46
2023/08/20 06:59:00;;;;;;;4.97;1.50;;;20.40;99.90;;;;;;5033506;28;20105;-57
2023/08/20 07:01:26;;;;;;;4.55;1.50;;;19.80;99.90;;;;;;5039940;28;20018;-48
2023/08/20 07:03:51;;;;;;;4.88;1.38;;;21.60;99.90;;;;;;5040652;28;20048;-49
2023/08/20 07:06:18;;;;;;;4.18;1.33;;;21.20;99.90;;;;;;5049195;28;20047;-52
2023/08/20 07:08:44;;;;;;;7.47;2.00;;;21.50;99.90;;;;;;5049359;28;20024;-44
2023/08/20 07:11:10;;;;;;;5.97;1.55;;;21.90;99.90;;;;;;5049161;28;20025;-44
2023/08/20 07:13:36;;;;;;;5.50;1.75;;;22.10;99.90;;;;;;5042712;28;20068;-46
2023/08/20 07:16:02;;;;;;;4.88;1.60;;;22.20;99.90;;;;;;5037205;28;20025;-45
2023/08/20 07:18:28;;;;;;;3.72;1.58;;;22.60;99.90;;;;;;5035680;28;20109;-44
2023/08/20 07:20:55;;;;;;;4.93;2.15;;;23.10;99.90;;;;;;5035292;28;20021;-46
2023/08/20 07:23:20;;;;;;;5.80;1.67;;;24.70;99.90;;;;;;5032905;28;20048;-51
2023/08/20 07:25:46;;;;;;;5.88;1.73;;;23.40;99.90;;;;;;5037817;28;20037;-52
2023/08/20 07:28:12;;;;;;;4.63;1.83;;;22.90;99.90;;;;;;5036681;28;20028;-49
2023/08/20 07:30:38;;;;;;;5.05;1.88;;;23.70;99.90;;;;;;5029538;28;20101;-53
2023/08/20 07:33:04;;;;;;;4.60;1.80;;;23.80;99.90;;;;;;5035251;28;20360;-49
2023/08/20 07:35:29;;;;;;;6.50;1.83;;;23.90;99.90;;;;;;5035936;28;20036;-45
2023/08/20 07:37:55;;;;;;;10.90;2.10;;;24.20;99.90;;;;;;5033066;28;20099;-47
2023/08/20 07:40:20;;;;;;;5.75;2.10;;;23.80;99.90;;;;;;5031302;28;20029;-54
2023/08/20 07:42:46;;;;;;;4.32;1.48;;;24.30;99.90;;;;;;5035563;28;20037;-51
2023/08/20 07:45:13;;;;;;;7.35;1.27;;;24.40;99.90;;;;;;5035358;28;20043;-47
2023/08/20 07:47:39;;;;;;;8.38;1.20;;;24.80;99.90;;;;;;5029179;28;20470;-50
2023/08/20 07:50:05;;;;;;;5.75;1.58;;;24.80;99.90;;;;;;5035189;28;20025;-51
2023/08/20 07:52:31;;;;;;;4.07;0.82;;;24.60;99.90;;;;;;5037527;28;20025;-47
2023/08/20 07:54:57;;;;;;;3.45;0.93;;;25.00;99.90;;;;;;5035323;28;20099;-46
2023/08/20 07:57:23;;;;;;;7.18;1.35;;;25.30;99.90;;;;;;5032579;28;20490;-45
2023/08/20 07:59:52;;;;;;;4.53;1.42;;;25.40;99.90;;;;;;5037399;28;20517;-47
2023/08/20 08:02:18;;;;;;;4.65;1.05;;;25.10;99.90;;;;;;5037351;28;20047;-46
2023/08/20 08:04:44;;;;;;;4.25;1.10;;;25.60;99.90;;;;;;5034938;28;20033;-46
2023/08/20 08:07:12;;;;;;;3.63;0.90;;;26.70;99.90;;;;;;5050298;28;20041;-51
2023/08/20 08:09:37;;;;;;;4.05;0.80;;;26.00;99.90;;;;;;5050413;28;20557;-48
2023/08/20 08:12:05;;;;;;;3.95;1.08;;;26.00;99.90;;;;;;5050436;28;20079;-50
2023/08/20 08:14:30;;;;;;;1.98;1.10;;;26.20;99.90;;;;;;5050146;28;20079;-47
2023/08/20 08:16:57;;;;;;;2.75;0.65;;;25.70;99.90;;;;;;5050287;28;20429;-47
2023/08/20 08:19:22;;;;;;;3.05;1.38;;;24.80;99.90;;;;;;5050283;28;20123;-51
2023/08/20 08:21:49;;;;;;;3.22;0.98;;;24.50;99.90;;;;;;5050214;28;20048;-48
2023/08/20 08:24:14;;;;;;;5.60;1.13;;;24.70;99.90;;;;;;5050198;28;20446;-50
2023/08/20 08:26:41;;;;;;;4.72;1.10;;;24.50;99.90;;;;;;5050010;28;20040;-50
2023/08/20 08:29:07;;;;;;;3.80;0.98;;;24.60;99.90;;;;;;5050234;28;20489;-53
2023/08/20 08:31:33;;;;;;;5.57;1.10;;;26.00;99.90;;;;;;5052069;28;20119;-45
2023/08/20 08:33:59;;;;;;;4.25;1.10;;;25.90;99.90;;;;;;5054188;28;20029;-53
2023/08/20 08:36:25;;;;;;;3.90;0.70;;;25.90;99.90;;;;;;5054097;28;20389;-50
2023/08/20 08:38:51;;;;;;;5.18;0.88;;;25.70;99.90;;;;;;5040121;28;20136;-45
2023/08/20 08:41:20;;;;;;;4.93;0.75;;;24.70;99.90;;;;;;5054049;28;20079;-51
2023/08/20 08:43:46;;;;;;;;;;;25.40;99.90;;;;;;5054205;28;20021;-54
2023/08/20 08:46:16;;;;;;;5.10;0.88;;;25.30;99.90;;;;;;5053582;28;20003;-52
2023/08/20 08:48:46;;;;;;;2.88;0.85;;;25.30;99.90;;;;;;5053734;28;20045;-45
2023/08/20 08:51:13;;;;;;;3.53;0.82;;;26.00;99.90;;;;;;5053616;28;20036;-50
2023/08/20 08:53:39;;;;;;;3.63;1.10;;;26.70;99.90;;;;;;5053650;28;20029;-49
2023/08/20 08:56:07;;;;;;;2.80;0.73;;;27.30;99.90;;;;;;5053557;28;20086;-51
2023/08/20 08:58:33;;;;;;;2.47;0.95;;;27.80;99.90;;;;;;5053713;28;20033;-49
2023/08/20 09:00:59;;;;;;;2.55;0.70;;;26.70;99.90;;;;;;5053574;28;20078;-45
2023/08/20 09:03:24;;;;;;;4.65;1.20;;;26.40;99.90;;;;;;5053399;28;20025;-50
2023/08/20 09:06:03;;;;;;;6.13;0.98;;;26.10;99.90;;;;;;5053583;28;20053;-50
2023/08/20 09:08:32;;;;;;;3.10;0.93;;;26.40;99.90;;;;;;5040898;28;20723;-45
2023/08/20 09:10:59;;;;;;;2.47;0.98;;;26.60;99.90;;;;;;5053369;28;20029;-48
2023/08/20 09:13:32;;;;;;;1.85;0.60;;;26.90;99.90;;;;;;5053533;28;20620;-52
2023/08/20 09:15:58;;;;;;;5.35;0.70;;;27.10;99.90;;;;;;5053679;28;20036;-57
2023/08/20 09:18:23;;;;;;;4.10;0.80;;;27.10;99.90;;;;;;5053219;28;20021;-53
2023/08/20 09:20:50;;;;;;;2.55;0.98;;;27.40;99.90;;;;;;5053243;28;20021;-46
2023/08/20 09:23:15;;;;;;;4.15;0.88;;;27.60;99.90;;;;;;5053515;28;20493;-50
2023/08/20 09:25:45;;;;;;;4.35;0.93;;;27.80;99.90;;;;;;5052848;28;20037;-46
2023/08/20 09:28:10;;;;;;;1.88;0.75;;;28.10;99.90;;;;;;5052774;28;20048;-46
2023/08/20 09:30:39;;;;;;;2.10;0.82;;;30.40;99.90;;;;;;5052761;28;20489;-49
2023/08/20 09:33:11;;;;;;;3.42;0.88;;;28.30;99.90;;;;;;5049134;28;20032;-50
2023/08/20 09:35:37;;;;;;;3.15;0.80;;;28.20;99.90;;;;;;5035860;28;20047;-48
2023/08/20 09:38:05;;;;;;;2.92;0.80;;;28.30;99.90;;;;;;5039899;28;20017;-49
2023/08/20 09:40:31;;;;;;;2.13;0.82;;;28.30;99.90;;;;;;5036567;28;20029;-49
2023/08/20 09:42:57;;;;;;;5.43;1.13;;;28.10;99.90;;;;;;5037618;28;20560;-46
2023/08/20 09:45:28;;;;;;;4.82;1.05;;;28.40;99.90;;;;;;5037131;28;20025;-46
2023/08/20 09:48:01;;;;;;;2.63;0.90;;;28.90;99.90;;;;;;5036762;28;20442;-51
2023/08/20 09:50:27;;;;;;;3.53;0.73;;;29.20;99.90;;;;;;5048696;28;20033;-50
2023/08/20 09:53:06;;;;;;;3.05;0.75;;;28.80;99.90;;;;;;5050904;28;20029;-46
2023/08/20 09:55:38;;;;;;;6.07;0.98;;;27.70;99.90;;;;;;5048903;28;20025;-45
2023/08/20 09:58:05;;;;;;;2.60;0.63;;;28.50;99.90;;;;;;5033492;28;20091;-47
2023/08/20 10:00:32;;;;;;;3.78;0.88;;;29.50;99.90;;;;;;5037874;28;20040;-50
2023/08/20 10:02:58;;;;;;;4.38;0.80;;;29.00;99.90;;;;;;5049970;28;20424;-46
2023/08/20 10:05:24;;;;;;;4.25;0.82;;;29.00;99.90;;;;;;5042403;28;20427;-51
2023/08/20 10:07:51;;;;;;;4.75;0.80;;;29.50;99.90;;;;;;5037741;28;20029;-47
2023/08/20 10:10:17;;;;;;;4.00;1.10;;;28.30;99.90;;;;;;5035461;28;20037;-44
2023/08/20 10:12:44;;;;;;;1.90;0.80;;;27.90;99.90;;;;;;5045929;28;20029;-51
2023/08/20 10:15:13;;;;;;;2.88;0.95;;;27.60;99.90;;;;;;5036875;28;20013;-44
2023/08/20 10:17:42;;;;;;;5.80;0.95;;;27.30;99.90;;;;;;5039513;28;20074;-45
2023/08/20 10:20:10;;;;;;;3.42;1.02;;;29.30;99.90;;;;;;5044448;28;20047;-49
2023/08/20 10:22:43;;;;;;;3.85;0.68;;;27.00;99.90;;;;;;5042085;28;20385;-47
2023/08/20 10:25:25;;;;;;;2.83;0.93;;;26.50;99.90;;;;;;5036178;28;20474;-45
2023/08/20 10:27:51;;;;;;;3.20;0.80;;;25.90;99.90;;;;;;5039181;28;20037;-46
2023/08/20 10:30:21;;;;;;;2.72;0.65;;;25.80;99.90;;;;;;5044475;28;20036;-47
2023/08/20 10:32:48;;;;;;;2.55;0.60;;;25.70;99.90;;;;;;5041486;28;20021;-48
2023/08/20 10:35:18;;;;;;;1.50;0.70;;;26.00;99.90;;;;;;5034912;28;20036;-45
2023/08/20 10:38:04;;;;;;;3.60;0.88;;;28.00;99.90;;;;;;5041512;28;20187;-47
2023/08/20 10:40:56;;;;;;;2.13;0.43;;;27.40;99.90;;;;;;5040687;28;20052;-45
2023/08/20 10:43:28;;;;;;;2.15;0.73;;;28.00;99.90;;;;;;5041223;28;20151;-47
2023/08/20 10:46:07;;;;;;;3.92;0.82;;;28.00;99.90;;;;;;5041284;28;20033;-49
2023/08/20 10:48:34;;;;;;;1.70;0.60;;;28.50;99.90;;;;;;5045591;28;20067;-49
2023/08/20 10:51:11;;;;;;;2.90;0.70;;;29.40;99.90;;;;;;5046057;28;20059;-45
2023/08/20 10:53:37;;;;;;;3.90;0.82;;;28.90;99.90;;;;;;5047949;28;20095;-45
2023/08/20 10:56:17;;;;;;;2.85;0.80;;;29.10;99.90;;;;;;5050301;28;20029;-44
2023/08/20 10:58:47;;;;;;;2.50;0.77;;;28.90;99.90;;;;;;5036830;28;20419;-48
2023/08/20 11:01:22;;;;;;;2.05;0.63;;;29.00;99.90;;;;;;5034758;28;20558;-45
2023/08/20 11:03:50;;;;;;;4.95;1.00;;;28.80;99.90;;;;;;5032873;28;20025;-50
2023/08/20 11:06:17;;;;;;;2.80;0.80;;;28.10;99.90;;;;;;5047867;28;20044;-47
2023/08/20 11:08:43;;;;;;;2.78;0.68;;;28.80;99.90;;;;;;5050926;28;20021;-54
2023/08/20 11:11:09;;;;;;;2.58;0.60;;;28.80;99.90;;;;;;5037126;28;20033;-48
2023/08/20 11:13:35;;;;;;;3.15;0.90;;;28.70;99.90;;;;;;5033227;28;20030;-48
2023/08/20 11:16:05;;;;;;;2.92;0.82;;;28.90;99.90;;;;;;5046731;28;20044;-48
2023/08/20 11:18:34;;;;;;;1.63;0.60;;;27.80;99.90;;;;;;5050637;28;20029;-53
2023/08/20 11:21:00;;;;;;;3.92;0.75;;;28.60;99.90;;;;;;5036556;28;20052;-48
2023/08/20 11:23:27;;;;;;;3.45;1.08;;;28.60;99.90;;;;;;5032436;28;20386;-48
2023/08/20 11:25:53;;;;;;;3.17;0.60;;;28.90;99.90;;;;;;5036996;28;20033;-45
2023/08/20 11:28:18;;;;;;;3.78;0.88;;;28.80;99.90;;;;;;5026079;28;20025;-55
2023/08/20 11:30:46;;;;;;;2.83;0.80;;;28.70;99.90;;;;;;5030868;28;20033;-46
2023/08/20 11:33:11;;;;;;;3.30;0.60;;;28.70;99.90;;;;;;5039187;28;20036;-45
2023/08/20 11:35:37;;;;;;;3.17;0.70;;;28.30;99.90;;;;;;5036384;28;20021;-49
2023/08/20 11:38:04;;;;;;;5.38;1.15;;;28.70;99.90;;;;;;5042821;28;20025;-50
2023/08/20 11:40:30;;;;;;;3.38;0.77;;;28.90;99.90;;;;;;5039614;28;20013;-48
2023/08/20 11:42:55;;;;;;;3.03;0.70;;;28.30;99.90;;;;;;5039377;28;20033;-50
2023/08/20 11:45:21;;;;;;;3.22;1.05;;;28.20;99.90;;;;;;5039209;28;20060;-49
2023/08/20 11:47:46;;;;;;;4.32;1.08;;;28.70;99.90;;;;;;5034010;28;20051;-47
2023/08/20 11:50:12;;;;;;;4.63;1.63;;;28.00;99.90;;;;;;5035621;28;20018;-50
2023/08/20 11:52:41;;;;;;;3.05;0.95;;;28.30;99.90;;;;;;5039117;28;20044;-51
2023/08/20 11:55:07;;;;;;;7.35;1.02;;;28.40;99.90;;;;;;5038357;28;20108;-54
2023/08/20 11:57:35;;;;;;;2.72;0.82;;;28.50;99.90;;;;;;5036657;28;20057;-46
2023/08/20 12:00:04;;;;;;;4.30;0.88;;;28.10;99.90;;;;;;5033694;28;20487;-45
2023/08/20 12:02:30;;;;;;;6.43;1.05;;;28.00;99.90;;;;;;5043214;28;20432;-53
2023/08/20 12:04:59;;;;;;;2.05;0.70;;;28.00;99.90;;;;;;5049982;28;20079;-47
2023/08/20 12:07:26;;;;;;;3.83;1.23;;;27.80;99.90;;;;;;5049989;28;20037;-50
2023/08/20 12:09:55;;;;;;;3.10;0.93;;;28.00;99.90;;;;;;5049999;28;20028;-46
2023/08/20 12:12:21;;;;;;;;;;;28.10;99.90;;;;;;5050653;28;20083;-48
2023/08/20 12:14:47;;;;;;;4.55;0.65;;;28.00;99.90;;;;;;5050229;28;19908;-49
2023/08/20 12:17:17;;;;;;;3.35;0.77;;;27.80;99.90;;;;;;5050169;28;20116;-50
2023/08/20 12:19:43;;;;;;;2.92;0.90;;;28.00;99.90;;;;;;5050236;28;20509;-51
2023/08/20 12:22:08;;;;;;;2.28;0.80;;;27.70;99.90;;;;;;5049528;28;20025;-49
2023/08/20 12:24:34;;;;;;;3.45;0.80;;;27.70;99.90;;;;;;5043713;28;20029;-53
2023/08/20 12:27:00;;;;;;;7.43;1.45;;;27.00;99.90;;;;;;5031511;28;20072;-45
2023/08/20 12:29:25;;;;;;;4.15;1.00;;;27.80;99.90;;;;;;5034838;28;20021;-54
2023/08/20 12:31:51;;;;;;;2.97;1.17;;;27.60;99.90;;;;;;5035400;28;20033;-46
2023/08/20 12:34:17;;;;;;;4.07;0.70;;;27.50;99.90;;;;;;5037709;28;20087;-51
2023/08/20 12:36:42;;;;;;;3.22;0.77;;;27.50;99.90;;;;;;5038255;28;20032;-46
2023/08/20 12:39:08;;;;;;;3.67;0.60;;;27.40;99.90;;;;;;5043570;28;20048;-48
2023/08/20 12:41:36;;;;;;;3.88;0.82;;;27.20;99.90;;;;;;5040969;28;20413;-52
2023/08/20 12:44:02;;;;;;;3.92;0.90;;;26.80;99.90;;;;;;5049094;28;20056;-59
2023/08/20 12:46:27;;;;;;;6.60;1.52;;;26.40;99.90;;;;;;5044959;28;20486;-50
2023/08/20 12:48:53;;;;;;;3.03;0.75;;;26.80;99.90;;;;;;5033575;28;20045;-50
2023/08/20 12:51:18;;;;;;;3.05;0.77;;;26.10;99.90;;;;;;5050006;28;20052;-46